Last 30 Days

Alpine-Summit 8643' (Ward Mt.)

Daily Data | America/Los_Angeles
as of 6/19/21 9:26 PM PDT
Date Daily Max Temp (°F) Time of Max Temp Daily Min Temp (°F) Time of Min Temp Wind Spd (mph) Daily Max Wind (mph) Max RH (%) Min RH (%) Wet Bulb (°F)
6/18/21 81.9 1808 61.5 0710 0.4 4.2 37 16 50.4
6/17/21 82.8 1718 62.4 0504 6.7 24.8 25 5 45.7
6/16/21 77.2 1721 53.5 0500 20.0 44.3 38 6 43.8
6/15/21 66.9 1754 42.3 0257 32.5 53.2 99 15 43.5
6/14/21 55.2 1224 42.3 2349 36.1 60.7 96 73 46.3
6/13/21 64.0 1623 45.7 2259 31.0 57.5 90 42 47.1
6/12/21 66.4 1522 43.9 0526 22.7 44.2 83 36 45.2
6/11/21 59.9 1652 35.2 0506 24.1 44.4 61 20 35.2
6/10/21 54.3 1752 23.5 0440 20.7 51.7 98 20 29.4
6/9/21 42.8 1437 26.4 2354 41.0 84.5 97 65 31.7
6/8/21 47.9 1533 30.2 2235 40.0 66.4 92 44 32.4
6/7/21 57.4 1612 36.6 2347 41.1 70.5 72 25 38.1
6/6/21 64.7 1536 45.6 2338 37.6 71.7 71 23 42.9
6/5/21 68.4 1421 53.1 0257 31.2 60.7 45 22 43.8
6/4/21 73.8 1709 55.6 2358 25.7 48.7 52 21 47.2
6/3/21 75.8 1652 58.8 0000 18.1 43.1 41 20 47.6
6/2/21 77.8 1535 58.5 0302 12.5 39.0 41 23 48.9
6/1/21 74.7 1638 54.9 0524 16.7 48.2 47 20 47.2
5/31/21 76.4 1603 51.2 0529 16.2 36.7 39 17 44.1
5/30/21 70.9 1704 47.3 0552 14.2 31.8 60 18 43.0
5/29/21 70.2 1536 45.0 0559 19.3 52.9 81 21 43.1
5/28/21 65.2 1640 41.1 0309 10.2 33.8 76 32 42.1
5/27/21 60.8 1653 42.4 0509 23.8 42.8 48 8 34.4
5/26/21 60.7 1722 35.1 0327 14.9 32.5 64 16 36.0
5/25/21 51.6 1612 34.7 0558 36.2 65.7 91 33 36.3
5/24/21 54.3 1524 35.0 0052 23.6 58.5 86 40 37.0
5/23/21 44.7 1742 29.2 0531 24.2 49.7 100 68 33.3
5/22/21 38.8 1449 24.8 0540 18.4 43.0 100 78 29.0
5/21/21 39.2 1758 20.4 0304 21.1 55.7 97 56 25.5
5/20/21 32.6 1218 21.2 2045 30.2 63.7 97 52 23.5
Max 82.8 - 62.4 - 41.1 84.5 100 78 50.4
Avg - - - - 23.7 - - - 39.8
Min 32.6 - 20.4 - 0.4 4.2 25 5 23.5